sensor_id;sensor_type;location;lat;lon;timestamp;P1;durP1;ratioP1;P2;durP2;ratioP2
73239;SDS011;61452;40.054;4.110;2022-11-20T00:00:07;17.35;;;3.97;;
73239;SDS011;61452;40.054;4.110;2022-11-20T00:05:11;14.35;;;4.53;;
73239;SDS011;61452;40.054;4.110;2022-11-20T00:10:13;19.00;;;3.88;;
73239;SDS011;61452;40.054;4.110;2022-11-20T00:15:15;14.32;;;3.38;;
73239;SDS011;61452;40.054;4.110;2022-11-20T00:20:17;18.02;;;4.72;;
73239;SDS011;61452;40.054;4.110;2022-11-20T00:25:20;21.20;;;4.55;;
73239;SDS011;61452;40.054;4.110;2022-11-20T00:30:22;26.25;;;4.20;;
73239;SDS011;61452;40.054;4.110;2022-11-20T00:35:24;19.85;;;4.10;;
73239;SDS011;61452;40.054;4.110;2022-11-20T00:40:26;21.15;;;4.18;;
73239;SDS011;61452;40.054;4.110;2022-11-20T00:45:28;17.70;;;5.55;;
73239;SDS011;61452;40.054;4.110;2022-11-20T00:50:30;24.33;;;5.45;;
73239;SDS011;61452;40.054;4.110;2022-11-20T00:55:32;20.35;;;4.50;;
73239;SDS011;61452;40.054;4.110;2022-11-20T01:00:34;18.77;;;4.63;;
73239;SDS011;61452;40.054;4.110;2022-11-20T01:05:36;20.45;;;4.90;;
73239;SDS011;61452;40.054;4.110;2022-11-20T01:10:38;17.27;;;4.18;;
73239;SDS011;61452;40.054;4.110;2022-11-20T01:15:40;16.60;;;4.30;;
73239;SDS011;61452;40.054;4.110;2022-11-20T01:20:42;21.13;;;4.78;;
73239;SDS011;61452;40.054;4.110;2022-11-20T01:25:45;19.90;;;4.38;;
73239;SDS011;61452;40.054;4.110;2022-11-20T01:30:47;24.02;;;4.90;;
73239;SDS011;61452;40.054;4.110;2022-11-20T01:35:49;17.90;;;4.05;;
73239;SDS011;61452;40.054;4.110;2022-11-20T01:40:55;21.23;;;4.95;;
73239;SDS011;61452;40.054;4.110;2022-11-20T01:46:02;18.63;;;3.67;;
73239;SDS011;61452;40.054;4.110;2022-11-20T01:56:26;17.70;;;4.32;;
73239;SDS011;61452;40.054;4.110;2022-11-20T02:01:30;20.23;;;4.80;;
73239;SDS011;61452;40.054;4.110;2022-11-20T02:06:35;25.13;;;5.07;;
73239;SDS011;61452;40.054;4.110;2022-11-20T02:11:46;18.23;;;4.60;;
73239;SDS011;61452;40.054;4.110;2022-11-20T02:16:48;22.25;;;4.32;;
73239;SDS011;61452;40.054;4.110;2022-11-20T02:27:15;18.98;;;5.18;;
73239;SDS011;61452;40.054;4.110;2022-11-20T02:32:23;16.25;;;4.10;;
73239;SDS011;61452;40.054;4.110;2022-11-20T02:37:30;19.13;;;4.72;;
73239;SDS011;61452;40.054;4.110;2022-11-20T02:42:36;21.80;;;4.70;;
73239;SDS011;61452;40.054;4.110;2022-11-20T02:47:39;19.92;;;4.00;;
73239;SDS011;61452;40.054;4.110;2022-11-20T02:52:41;15.38;;;3.20;;
73239;SDS011;61452;40.054;4.110;2022-11-20T02:57:43;21.50;;;4.80;;
73239;SDS011;61452;40.054;4.110;2022-11-20T03:02:45;19.65;;;4.38;;
73239;SDS011;61452;40.054;4.110;2022-11-20T03:07:47;13.50;;;3.58;;
73239;SDS011;61452;40.054;4.110;2022-11-20T03:12:53;17.83;;;4.03;;
73239;SDS011;61452;40.054;4.110;2022-11-20T03:17:56;13.70;;;3.55;;
73239;SDS011;61452;40.054;4.110;2022-11-20T03:22:58;19.58;;;4.07;;
73239;SDS011;61452;40.054;4.110;2022-11-20T03:28:01;19.60;;;4.05;;
73239;SDS011;61452;40.054;4.110;2022-11-20T03:33:03;18.60;;;4.97;;
73239;SDS011;61452;40.054;4.110;2022-11-20T03:38:05;17.15;;;3.80;;
73239;SDS011;61452;40.054;4.110;2022-11-20T03:43:09;18.58;;;4.50;;
73239;SDS011;61452;40.054;4.110;2022-11-20T03:48:11;18.90;;;4.78;;
73239;SDS011;61452;40.054;4.110;2022-11-20T03:53:13;18.48;;;4.28;;
73239;SDS011;61452;40.054;4.110;2022-11-20T03:58:16;17.02;;;4.20;;
73239;SDS011;61452;40.054;4.110;2022-11-20T04:03:19;21.35;;;3.88;;
73239;SDS011;61452;40.054;4.110;2022-11-20T04:08:21;17.60;;;4.38;;
73239;SDS011;61452;40.054;4.110;2022-11-20T04:13:23;26.48;;;6.03;;
73239;SDS011;61452;40.054;4.110;2022-11-20T04:18:26;13.98;;;4.30;;
73239;SDS011;61452;40.054;4.110;2022-11-20T04:23:28;21.52;;;4.78;;
73239;SDS011;61452;40.054;4.110;2022-11-20T04:28:30;18.38;;;4.32;;
73239;SDS011;61452;40.054;4.110;2022-11-20T04:33:33;16.75;;;4.25;;
73239;SDS011;61452;40.054;4.110;2022-11-20T04:38:36;23.15;;;4.85;;
73239;SDS011;61452;40.054;4.110;2022-11-20T04:43:38;22.95;;;4.93;;
73239;SDS011;61452;40.054;4.110;2022-11-20T04:48:40;22.70;;;3.92;;
73239;SDS011;61452;40.054;4.110;2022-11-20T04:53:42;17.27;;;4.15;;
73239;SDS011;61452;40.054;4.110;2022-11-20T04:58:45;19.15;;;4.03;;
73239;SDS011;61452;40.054;4.110;2022-11-20T05:03:47;23.55;;;5.30;;
73239;SDS011;61452;40.054;4.110;2022-11-20T05:08:49;17.67;;;4.82;;
73239;SDS011;61452;40.054;4.110;2022-11-20T05:13:51;23.05;;;4.82;;
73239;SDS011;61452;40.054;4.110;2022-11-20T05:18:54;16.10;;;3.70;;
73239;SDS011;61452;40.054;4.110;2022-11-20T05:23:56;20.30;;;4.68;;
73239;SDS011;61452;40.054;4.110;2022-11-20T05:28:58;17.95;;;5.15;;
73239;SDS011;61452;40.054;4.110;2022-11-20T05:34:00;22.52;;;4.95;;
73239;SDS011;61452;40.054;4.110;2022-11-20T05:39:02;25.88;;;5.75;;
73239;SDS011;61452;40.054;4.110;2022-11-20T05:44:05;23.60;;;5.05;;
73239;SDS011;61452;40.054;4.110;2022-11-20T05:49:07;24.55;;;5.15;;
73239;SDS011;61452;40.054;4.110;2022-11-20T05:54:09;22.00;;;4.43;;
73239;SDS011;61452;40.054;4.110;2022-11-20T05:59:11;20.05;;;4.90;;
73239;SDS011;61452;40.054;4.110;2022-11-20T06:04:13;20.00;;;4.70;;
73239;SDS011;61452;40.054;4.110;2022-11-20T06:09:15;20.30;;;4.40;;
73239;SDS011;61452;40.054;4.110;2022-11-20T06:14:17;24.20;;;5.68;;
73239;SDS011;61452;40.054;4.110;2022-11-20T06:19:19;27.58;;;6.13;;
73239;SDS011;61452;40.054;4.110;2022-11-20T06:24:22;23.52;;;5.13;;
73239;SDS011;61452;40.054;4.110;2022-11-20T06:29:24;24.65;;;5.68;;
73239;SDS011;61452;40.054;4.110;2022-11-20T06:34:33;23.70;;;5.60;;
73239;SDS011;61452;40.054;4.110;2022-11-20T06:39:35;35.20;;;6.05;;
73239;SDS011;61452;40.054;4.110;2022-11-20T06:44:37;27.13;;;6.40;;
73239;SDS011;61452;40.054;4.110;2022-11-20T06:49:39;48.33;;;8.98;;
73239;SDS011;61452;40.054;4.110;2022-11-20T06:54:41;28.75;;;6.05;;
73239;SDS011;61452;40.054;4.110;2022-11-20T06:59:43;39.72;;;7.32;;
73239;SDS011;61452;40.054;4.110;2022-11-20T07:04:45;28.98;;;6.85;;
73239;SDS011;61452;40.054;4.110;2022-11-20T07:09:47;24.63;;;6.38;;
73239;SDS011;61452;40.054;4.110;2022-11-20T07:14:49;24.27;;;4.78;;
73239;SDS011;61452;40.054;4.110;2022-11-20T07:19:51;27.77;;;6.43;;
73239;SDS011;61452;40.054;4.110;2022-11-20T07:24:54;31.02;;;7.20;;
73239;SDS011;61452;40.054;4.110;2022-11-20T07:29:56;36.13;;;7.07;;
73239;SDS011;61452;40.054;4.110;2022-11-20T07:34:58;33.63;;;7.65;;
73239;SDS011;61452;40.054;4.110;2022-11-20T07:40:00;28.13;;;5.13;;
73239;SDS011;61452;40.054;4.110;2022-11-20T07:45:03;30.10;;;6.35;;
73239;SDS011;61452;40.054;4.110;2022-11-20T07:50:05;25.35;;;6.35;;
73239;SDS011;61452;40.054;4.110;2022-11-20T07:55:08;28.67;;;6.38;;
73239;SDS011;61452;40.054;4.110;2022-11-20T08:00:11;19.50;;;5.20;;
73239;SDS011;61452;40.054;4.110;2022-11-20T08:05:14;24.95;;;6.07;;
73239;SDS011;61452;40.054;4.110;2022-11-20T08:10:16;26.58;;;5.30;;
73239;SDS011;61452;40.054;4.110;2022-11-20T08:15:18;20.83;;;5.22;;
73239;SDS011;61452;40.054;4.110;2022-11-20T08:20:20;29.10;;;7.22;;
73239;SDS011;61452;40.054;4.110;2022-11-20T08:25:22;32.17;;;6.78;;
73239;SDS011;61452;40.054;4.110;2022-11-20T08:30:24;27.65;;;6.50;;
73239;SDS011;61452;40.054;4.110;2022-11-20T08:35:27;28.63;;;6.13;;
73239;SDS011;61452;40.054;4.110;2022-11-20T08:40:29;35.13;;;8.38;;
73239;SDS011;61452;40.054;4.110;2022-11-20T08:45:31;31.67;;;7.07;;
73239;SDS011;61452;40.054;4.110;2022-11-20T08:50:35;23.60;;;5.20;;
73239;SDS011;61452;40.054;4.110;2022-11-20T08:55:37;25.13;;;5.68;;
73239;SDS011;61452;40.054;4.110;2022-11-20T09:00:41;29.48;;;6.70;;
73239;SDS011;61452;40.054;4.110;2022-11-20T09:05:43;27.10;;;7.03;;
73239;SDS011;61452;40.054;4.110;2022-11-20T09:10:45;36.65;;;7.82;;
73239;SDS011;61452;40.054;4.110;2022-11-20T09:15:51;26.33;;;5.85;;
73239;SDS011;61452;40.054;4.110;2022-11-20T09:20:58;31.67;;;7.15;;
73239;SDS011;61452;40.054;4.110;2022-11-20T09:26:03;37.38;;;8.75;;
73239;SDS011;61452;40.054;4.110;2022-11-20T09:31:06;26.08;;;6.43;;
73239;SDS011;61452;40.054;4.110;2022-11-20T09:36:09;30.10;;;6.50;;
73239;SDS011;61452;40.054;4.110;2022-11-20T09:41:28;27.83;;;6.97;;
73239;SDS011;61452;40.054;4.110;2022-11-20T09:52:06;31.90;;;8.73;;
73239;SDS011;61452;40.054;4.110;2022-11-20T09:57:32;32.38;;;7.13;;
73239;SDS011;61452;40.054;4.110;2022-11-20T10:07:52;26.05;;;5.97;;
73239;SDS011;61452;40.054;4.110;2022-11-20T10:23:41;37.83;;;6.88;;
73239;SDS011;61452;40.054;4.110;2022-11-20T10:29:01;25.33;;;7.25;;
73239;SDS011;61452;40.054;4.110;2022-11-20T10:39:44;36.35;;;7.68;;
73239;SDS011;61452;40.054;4.110;2022-11-20T10:44:57;27.75;;;6.90;;
73239;SDS011;61452;40.054;4.110;2022-11-20T10:50:09;35.38;;;7.10;;
73239;SDS011;61452;40.054;4.110;2022-11-20T10:55:28;26.17;;;6.32;;
73239;SDS011;61452;40.054;4.110;2022-11-20T11:00:40;24.17;;;7.07;;
73239;SDS011;61452;40.054;4.110;2022-11-20T11:11:23;34.05;;;7.93;;
73239;SDS011;61452;40.054;4.110;2022-11-20T11:16:26;34.63;;;7.68;;
73239;SDS011;61452;40.054;4.110;2022-11-20T11:21:29;27.92;;;7.45;;
73239;SDS011;61452;40.054;4.110;2022-11-20T11:26:31;30.15;;;6.70;;
73239;SDS011;61452;40.054;4.110;2022-11-20T11:31:34;26.65;;;6.50;;
73239;SDS011;61452;40.054;4.110;2022-11-20T11:36:36;28.83;;;5.93;;
73239;SDS011;61452;40.054;4.110;2022-11-20T11:41:39;27.42;;;6.10;;
73239;SDS011;61452;40.054;4.110;2022-11-20T11:46:55;26.92;;;6.22;;
73239;SDS011;61452;40.054;4.110;2022-11-20T11:52:18;28.55;;;6.10;;
73239;SDS011;61452;40.054;4.110;2022-11-20T12:13:02;24.33;;;4.70;;
73239;SDS011;61452;40.054;4.110;2022-11-20T12:18:22;23.60;;;5.18;;
73239;SDS011;61452;40.054;4.110;2022-11-20T12:28:40;23.95;;;5.35;;
73239;SDS011;61452;40.054;4.110;2022-11-20T12:39:32;21.55;;;5.13;;
73239;SDS011;61452;40.054;4.110;2022-11-20T13:01:40;20.70;;;3.67;;
73239;SDS011;61452;40.054;4.110;2022-11-20T13:06:51;19.67;;;4.82;;
73239;SDS011;61452;40.054;4.110;2022-11-20T13:17:37;17.15;;;3.78;;
73239;SDS011;61452;40.054;4.110;2022-11-20T13:22:48;17.83;;;4.30;;
73239;SDS011;61452;40.054;4.110;2022-11-20T13:27:54;31.40;;;6.05;;
73239;SDS011;61452;40.054;4.110;2022-11-20T13:33:07;17.27;;;3.80;;
73239;SDS011;61452;40.054;4.110;2022-11-20T13:38:24;24.65;;;4.82;;
73239;SDS011;61452;40.054;4.110;2022-11-20T13:43:42;19.25;;;4.03;;
73239;SDS011;61452;40.054;4.110;2022-11-20T13:48:46;13.95;;;3.35;;
73239;SDS011;61452;40.054;4.110;2022-11-20T13:53:53;24.08;;;3.83;;
73239;SDS011;61452;40.054;4.110;2022-11-20T13:59:06;19.38;;;3.58;;
73239;SDS011;61452;40.054;4.110;2022-11-20T14:04:16;17.00;;;3.88;;
73239;SDS011;61452;40.054;4.110;2022-11-20T14:09:26;27.60;;;5.78;;
73239;SDS011;61452;40.054;4.110;2022-11-20T14:14:30;18.05;;;3.60;;
73239;SDS011;61452;40.054;4.110;2022-11-20T14:19:35;15.82;;;4.60;;
73239;SDS011;61452;40.054;4.110;2022-11-20T14:24:39;21.80;;;4.32;;
73239;SDS011;61452;40.054;4.110;2022-11-20T14:29:41;18.45;;;4.05;;
73239;SDS011;61452;40.054;4.110;2022-11-20T14:39:52;20.52;;;4.22;;
73239;SDS011;61452;40.054;4.110;2022-11-20T14:44:56;19.88;;;4.03;;
73239;SDS011;61452;40.054;4.110;2022-11-20T14:50:00;18.02;;;4.03;;
73239;SDS011;61452;40.054;4.110;2022-11-20T14:55:13;15.98;;;3.70;;
73239;SDS011;61452;40.054;4.110;2022-11-20T15:05:18;15.25;;;3.67;;
73239;SDS011;61452;40.054;4.110;2022-11-20T15:15:47;12.77;;;3.50;;
73239;SDS011;61452;40.054;4.110;2022-11-20T15:20:55;15.90;;;3.60;;
73239;SDS011;61452;40.054;4.110;2022-11-20T15:25:59;13.10;;;2.90;;
73239;SDS011;61452;40.054;4.110;2022-11-20T15:31:01;19.75;;;3.45;;
73239;SDS011;61452;40.054;4.110;2022-11-20T15:36:04;15.70;;;3.47;;
73239;SDS011;61452;40.054;4.110;2022-11-20T15:41:07;15.13;;;3.13;;
73239;SDS011;61452;40.054;4.110;2022-11-20T15:46:11;14.38;;;2.92;;
73239;SDS011;61452;40.054;4.110;2022-11-20T15:56:23;13.02;;;2.47;;
73239;SDS011;61452;40.054;4.110;2022-11-20T16:01:26;20.75;;;3.55;;
73239;SDS011;61452;40.054;4.110;2022-11-20T16:06:28;15.65;;;2.50;;
73239;SDS011;61452;40.054;4.110;2022-11-20T16:11:30;17.00;;;2.30;;
73239;SDS011;61452;40.054;4.110;2022-11-20T16:16:33;13.25;;;2.67;;
73239;SDS011;61452;40.054;4.110;2022-11-20T16:21:36;10.20;;;2.13;;
73239;SDS011;61452;40.054;4.110;2022-11-20T16:26:41;11.15;;;2.33;;
73239;SDS011;61452;40.054;4.110;2022-11-20T16:31:43;14.43;;;2.42;;
73239;SDS011;61452;40.054;4.110;2022-11-20T16:36:45;12.85;;;2.40;;
73239;SDS011;61452;40.054;4.110;2022-11-20T16:41:47;13.80;;;2.28;;
73239;SDS011;61452;40.054;4.110;2022-11-20T16:46:49;11.43;;;2.22;;
73239;SDS011;61452;40.054;4.110;2022-11-20T16:51:52;11.10;;;2.33;;
73239;SDS011;61452;40.054;4.110;2022-11-20T16:56:54;10.95;;;2.22;;
73239;SDS011;61452;40.054;4.110;2022-11-20T17:01:56;10.63;;;2.53;;
73239;SDS011;61452;40.054;4.110;2022-11-20T17:06:58;10.98;;;2.28;;
73239;SDS011;61452;40.054;4.110;2022-11-20T17:12:08;8.35;;;2.45;;
73239;SDS011;61452;40.054;4.110;2022-11-20T17:17:11;8.00;;;1.80;;
73239;SDS011;61452;40.054;4.110;2022-11-20T17:22:13;10.02;;;2.83;;
73239;SDS011;61452;40.054;4.110;2022-11-20T17:27:15;9.95;;;2.20;;
73239;SDS011;61452;40.054;4.110;2022-11-20T17:32:17;10.55;;;2.13;;
73239;SDS011;61452;40.054;4.110;2022-11-20T17:37:19;8.43;;;2.33;;
73239;SDS011;61452;40.054;4.110;2022-11-20T17:42:21;8.80;;;2.00;;
73239;SDS011;61452;40.054;4.110;2022-11-20T17:47:30;8.75;;;2.08;;
73239;SDS011;61452;40.054;4.110;2022-11-20T17:52:32;6.03;;;1.77;;
73239;SDS011;61452;40.054;4.110;2022-11-20T17:57:34;7.13;;;1.70;;
73239;SDS011;61452;40.054;4.110;2022-11-20T18:02:57;6.93;;;1.90;;
73239;SDS011;61452;40.054;4.110;2022-11-20T18:07:59;6.05;;;1.30;;
73239;SDS011;61452;40.054;4.110;2022-11-20T18:13:01;7.05;;;2.47;;
73239;SDS011;61452;40.054;4.110;2022-11-20T18:18:03;7.68;;;1.60;;
73239;SDS011;61452;40.054;4.110;2022-11-20T18:23:05;7.05;;;1.67;;
73239;SDS011;61452;40.054;4.110;2022-11-20T18:28:07;4.25;;;1.52;;
73239;SDS011;61452;40.054;4.110;2022-11-20T18:33:10;8.05;;;1.80;;
73239;SDS011;61452;40.054;4.110;2022-11-20T18:38:12;9.05;;;1.65;;
73239;SDS011;61452;40.054;4.110;2022-11-20T18:43:14;7.93;;;1.70;;
73239;SDS011;61452;40.054;4.110;2022-11-20T18:48:34;6.68;;;1.92;;
73239;SDS011;61452;40.054;4.110;2022-11-20T18:53:36;9.02;;;1.90;;
73239;SDS011;61452;40.054;4.110;2022-11-20T18:58:43;5.20;;;2.00;;
73239;SDS011;61452;40.054;4.110;2022-11-20T19:03:45;7.75;;;1.42;;
73239;SDS011;61452;40.054;4.110;2022-11-20T19:08:47;7.85;;;1.55;;
73239;SDS011;61452;40.054;4.110;2022-11-20T19:13:50;6.57;;;2.05;;
73239;SDS011;61452;40.054;4.110;2022-11-20T19:18:52;7.32;;;1.50;;
73239;SDS011;61452;40.054;4.110;2022-11-20T19:23:58;4.63;;;1.00;;
73239;SDS011;61452;40.054;4.110;2022-11-20T19:29:02;5.38;;;1.10;;
73239;SDS011;61452;40.054;4.110;2022-11-20T19:34:05;5.90;;;1.02;;
73239;SDS011;61452;40.054;4.110;2022-11-20T19:39:08;6.47;;;1.60;;
73239;SDS011;61452;40.054;4.110;2022-11-20T19:44:12;3.63;;;0.95;;
73239;SDS011;61452;40.054;4.110;2022-11-20T19:49:15;5.50;;;1.10;;
73239;SDS011;61452;40.054;4.110;2022-11-20T19:54:17;6.07;;;0.93;;
73239;SDS011;61452;40.054;4.110;2022-11-20T19:59:19;4.65;;;0.90;;
73239;SDS011;61452;40.054;4.110;2022-11-20T20:04:22;8.02;;;1.42;;
73239;SDS011;61452;40.054;4.110;2022-11-20T20:09:24;5.95;;;1.05;;
73239;SDS011;61452;40.054;4.110;2022-11-20T20:14:27;4.22;;;0.85;;
73239;SDS011;61452;40.054;4.110;2022-11-20T20:19:29;5.28;;;1.00;;
73239;SDS011;61452;40.054;4.110;2022-11-20T20:24:31;4.30;;;1.10;;
73239;SDS011;61452;40.054;4.110;2022-11-20T20:29:33;4.82;;;1.02;;
73239;SDS011;61452;40.054;4.110;2022-11-20T20:34:35;6.55;;;0.90;;
73239;SDS011;61452;40.054;4.110;2022-11-20T20:39:37;5.15;;;1.10;;
73239;SDS011;61452;40.054;4.110;2022-11-20T20:44:40;6.13;;;0.70;;
73239;SDS011;61452;40.054;4.110;2022-11-20T20:50:01;6.07;;;1.45;;
73239;SDS011;61452;40.054;4.110;2022-11-20T20:55:07;5.90;;;0.85;;
73239;SDS011;61452;40.054;4.110;2022-11-20T21:00:10;3.92;;;0.80;;
73239;SDS011;61452;40.054;4.110;2022-11-20T21:05:12;6.13;;;0.98;;
73239;SDS011;61452;40.054;4.110;2022-11-20T21:10:15;2.90;;;0.98;;
73239;SDS011;61452;40.054;4.110;2022-11-20T21:15:23;5.75;;;1.40;;
73239;SDS011;61452;40.054;4.110;2022-11-20T21:20:25;6.57;;;0.98;;
73239;SDS011;61452;40.054;4.110;2022-11-20T21:25:46;3.13;;;0.80;;
73239;SDS011;61452;40.054;4.110;2022-11-20T21:30:48;7.97;;;0.85;;
73239;SDS011;61452;40.054;4.110;2022-11-20T21:35:50;5.40;;;1.20;;
73239;SDS011;61452;40.054;4.110;2022-11-20T21:40:52;3.40;;;0.82;;
73239;SDS011;61452;40.054;4.110;2022-11-20T21:46:01;2.67;;;0.90;;
73239;SDS011;61452;40.054;4.110;2022-11-20T21:51:12;3.78;;;0.75;;
73239;SDS011;61452;40.054;4.110;2022-11-20T21:56:17;4.75;;;0.75;;
73239;SDS011;61452;40.054;4.110;2022-11-20T22:01:22;5.40;;;0.90;;
73239;SDS011;61452;40.054;4.110;2022-11-20T22:06:29;4.60;;;0.93;;
73239;SDS011;61452;40.054;4.110;2022-11-20T22:11:33;4.90;;;0.70;;
73239;SDS011;61452;40.054;4.110;2022-11-20T22:16:35;3.00;;;0.70;;
73239;SDS011;61452;40.054;4.110;2022-11-20T22:21:38;3.58;;;0.77;;
73239;SDS011;61452;40.054;4.110;2022-11-20T22:26:41;8.05;;;1.63;;
73239;SDS011;61452;40.054;4.110;2022-11-20T22:31:44;4.03;;;0.70;;
73239;SDS011;61452;40.054;4.110;2022-11-20T22:36:46;2.58;;;0.65;;
73239;SDS011;61452;40.054;4.110;2022-11-20T22:41:48;3.30;;;0.88;;
73239;SDS011;61452;40.054;4.110;2022-11-20T22:46:50;4.07;;;0.93;;
73239;SDS011;61452;40.054;4.110;2022-11-20T22:51:53;2.85;;;0.70;;
73239;SDS011;61452;40.054;4.110;2022-11-20T22:56:55;2.47;;;0.57;;
73239;SDS011;61452;40.054;4.110;2022-11-20T23:01:57;4.82;;;0.80;;
73239;SDS011;61452;40.054;4.110;2022-11-20T23:06:59;3.45;;;0.98;;
73239;SDS011;61452;40.054;4.110;2022-11-20T23:12:01;4.55;;;0.95;;
73239;SDS011;61452;40.054;4.110;2022-11-20T23:17:03;3.80;;;0.63;;
73239;SDS011;61452;40.054;4.110;2022-11-20T23:22:05;3.10;;;0.90;;
73239;SDS011;61452;40.054;4.110;2022-11-20T23:27:07;4.00;;;0.70;;
73239;SDS011;61452;40.054;4.110;2022-11-20T23:32:09;5.13;;;0.60;;
73239;SDS011;61452;40.054;4.110;2022-11-20T23:37:11;2.55;;;0.50;;
73239;SDS011;61452;40.054;4.110;2022-11-20T23:42:13;2.40;;;0.52;;
73239;SDS011;61452;40.054;4.110;2022-11-20T23:47:16;2.92;;;0.60;;
73239;SDS011;61452;40.054;4.110;2022-11-20T23:52:18;1.92;;;0.32;;
73239;SDS011;61452;40.054;4.110;2022-11-20T23:57:20;1.52;;;0.40;;
